sensor_id;sensor_type;location;lat;lon;timestamp;pressure;altitude;pressure_sealevel;temperature;humidity
75699;BME280;64313;51.018;13.742;2023-10-19T00:01:14;98362.59;;;8.59;57.85
75699;BME280;64313;51.018;13.742;2023-10-19T00:03:43;98359.94;;;8.59;57.22
75699;BME280;64313;51.018;13.742;2023-10-19T00:06:15;98367.09;;;8.58;58.01
75699;BME280;64313;51.018;13.742;2023-10-19T00:08:40;98351.94;;;8.59;57.29
75699;BME280;64313;51.018;13.742;2023-10-19T00:11:09;98350.34;;;8.58;57.60
75699;BME280;64313;51.018;13.742;2023-10-19T00:13:36;98346.06;;;8.57;57.91
75699;BME280;64313;51.018;13.742;2023-10-19T00:16:04;98343.16;;;8.58;58.08
75699;BME280;64313;51.018;13.742;2023-10-19T00:18:48;98338.09;;;8.57;57.70
75699;BME280;64313;51.018;13.742;2023-10-19T00:21:15;98337.06;;;8.58;57.76
75699;BME280;64313;51.018;13.742;2023-10-19T00:23:54;98332.53;;;8.58;57.76
75699;BME280;64313;51.018;13.742;2023-10-19T00:26:26;98321.09;;;8.58;57.63
75699;BME280;64313;51.018;13.742;2023-10-19T00:29:00;98331.75;;;8.58;57.71
75699;BME280;64313;51.018;13.742;2023-10-19T00:31:39;98328.28;;;8.57;57.69
75699;BME280;64313;51.018;13.742;2023-10-19T00:34:06;98330.13;;;8.57;57.34
75699;BME280;64313;51.018;13.742;2023-10-19T00:36:31;98323.97;;;8.56;57.97
75699;BME280;64313;51.018;13.742;2023-10-19T00:38:59;98326.44;;;8.58;57.37
75699;BME280;64313;51.018;13.742;2023-10-19T00:41:30;98321.09;;;8.58;57.55
75699;BME280;64313;51.018;13.742;2023-10-19T00:43:57;98319.50;;;8.57;57.19
75699;BME280;64313;51.018;13.742;2023-10-19T00:46:28;98313.13;;;8.58;57.81
75699;BME280;64313;51.018;13.742;2023-10-19T00:49:09;98315.56;;;8.59;57.53
75699;BME280;64313;51.018;13.742;2023-10-19T00:51:44;98296.16;;;8.59;58.30
75699;BME280;64313;51.018;13.742;2023-10-19T00:54:27;98293.25;;;8.60;57.80
75699;BME280;64313;51.018;13.742;2023-10-19T00:57:04;98290.59;;;8.60;57.80
75699;BME280;64313;51.018;13.742;2023-10-19T00:59:40;98292.22;;;8.61;57.86
75699;BME280;64313;51.018;13.742;2023-10-19T01:02:15;98295.69;;;8.62;58.00
75699;BME280;64313;51.018;13.742;2023-10-19T01:04:52;98293.03;;;8.62;57.84
75699;BME280;64313;51.018;13.742;2023-10-19T01:07:27;98285.06;;;8.62;57.79
75699;BME280;64313;51.018;13.742;2023-10-19T01:10:01;98271.75;;;8.62;57.94
75699;BME280;64313;51.018;13.742;2023-10-19T01:12:45;98260.94;;;8.63;58.04
75699;BME280;64313;51.018;13.742;2023-10-19T01:15:18;98275.03;;;8.64;57.74
75699;BME280;64313;51.018;13.742;2023-10-19T01:17:54;98259.88;;;8.64;57.76
75699;BME280;64313;51.018;13.742;2023-10-19T01:20:29;98254.31;;;8.66;57.74
75699;BME280;64313;51.018;13.742;2023-10-19T01:28:15;98240.81;;;8.67;57.89
75699;BME280;64313;51.018;13.742;2023-10-19T01:30:42;98250.63;;;8.67;58.37
75699;BME280;64313;51.018;13.742;2023-10-19T01:33:09;98250.38;;;8.68;58.40
75699;BME280;64313;51.018;13.742;2023-10-19T01:35:44;98246.94;;;8.68;58.71
75699;BME280;64313;51.018;13.742;2023-10-19T01:38:29;98243.22;;;8.69;57.74
75699;BME280;64313;51.018;13.742;2023-10-19T01:40:58;98242.41;;;8.68;58.27
75699;BME280;64313;51.018;13.742;2023-10-19T01:43:28;98234.22;;;8.70;58.40
75699;BME280;64313;51.018;13.742;2023-10-19T01:46:00;98229.72;;;8.71;58.82
75699;BME280;64313;51.018;13.742;2023-10-19T01:48:42;98227.88;;;8.71;58.24
75699;BME280;64313;51.018;13.742;2023-10-19T01:51:08;98220.72;;;8.72;58.77
75699;BME280;64313;51.018;13.742;2023-10-19T01:53:39;98214.34;;;8.73;58.25
75699;BME280;64313;51.018;13.742;2023-10-19T01:56:09;98210.88;;;8.72;58.89
75699;BME280;64313;51.018;13.742;2023-10-19T01:58:39;98199.22;;;8.73;58.29
75699;BME280;64313;51.018;13.742;2023-10-19T02:01:06;98191.81;;;8.75;58.85
75699;BME280;64313;51.018;13.742;2023-10-19T02:03:35;98195.25;;;8.76;58.35
75699;BME280;64313;51.018;13.742;2023-10-19T02:06:02;98197.72;;;8.77;58.40
75699;BME280;64313;51.018;13.742;2023-10-19T02:08:58;98189.75;;;8.77;58.20
75699;BME280;64313;51.018;13.742;2023-10-19T02:11:34;98181.75;;;8.77;58.52
75699;BME280;64313;51.018;13.742;2023-10-19T02:14:03;98179.66;;;8.79;58.18
75699;BME280;64313;51.018;13.742;2023-10-19T02:16:37;98172.50;;;8.80;58.16
75699;BME280;64313;51.018;13.742;2023-10-19T02:19:03;98169.84;;;8.80;58.54
75699;BME280;64313;51.018;13.742;2023-10-19T02:21:28;98164.28;;;8.81;58.78
75699;BME280;64313;51.018;13.742;2023-10-19T02:23:56;98160.81;;;8.81;58.69
75699;BME280;64313;51.018;13.742;2023-10-19T02:26:23;98146.72;;;8.80;58.78
75699;BME280;64313;51.018;13.742;2023-10-19T02:28:52;98152.03;;;8.80;58.67
75699;BME280;64313;51.018;13.742;2023-10-19T02:31:18;98149.38;;;8.80;58.58
75699;BME280;64313;51.018;13.742;2023-10-19T02:33:45;98149.38;;;8.80;58.62
75699;BME280;64313;51.018;13.742;2023-10-19T02:36:13;98146.72;;;8.80;58.84
75699;BME280;64313;51.018;13.742;2023-10-19T02:38:39;98137.94;;;8.80;58.58
75699;BME280;64313;51.018;13.742;2023-10-19T02:41:05;98130.78;;;8.80;58.41
75699;BME280;64313;51.018;13.742;2023-10-19T02:43:31;98114.03;;;8.80;58.76
75699;BME280;64313;51.018;13.742;2023-10-19T02:45:59;98108.72;;;8.80;58.92
75699;BME280;64313;51.018;13.742;2023-10-19T02:48:25;98101.53;;;8.80;58.75
75699;BME280;64313;51.018;13.742;2023-10-19T02:50:50;98096.22;;;8.80;58.66
75699;BME280;64313;51.018;13.742;2023-10-19T02:53:15;98088.25;;;8.80;59.04
75699;BME280;64313;51.018;13.742;2023-10-19T02:55:44;98089.31;;;8.79;58.94
75699;BME280;64313;51.018;13.742;2023-10-19T02:58:09;98085.03;;;8.78;59.16
75699;BME280;64313;51.018;13.742;2023-10-19T03:00:37;98083.44;;;8.77;59.22
75699;BME280;64313;51.018;13.742;2023-10-19T03:03:03;98079.97;;;8.77;60.14
75699;BME280;64313;51.018;13.742;2023-10-19T03:05:31;98086.28;;;8.76;59.95
75699;BME280;64313;51.018;13.742;2023-10-19T03:07:56;98083.44;;;8.77;60.45
75699;BME280;64313;51.018;13.742;2023-10-19T03:10:22;98076.72;;;8.75;60.95
75699;BME280;64313;51.018;13.742;2023-10-19T03:13:00;98076.94;;;8.73;61.85
75699;BME280;64313;51.018;13.742;2023-10-19T03:15:26;98067.38;;;8.72;61.39
75699;BME280;64313;51.018;13.742;2023-10-19T03:17:55;98068.41;;;8.71;62.60
75699;BME280;64313;51.018;13.742;2023-10-19T03:20:21;98067.81;;;8.69;62.43
75699;BME280;64313;51.018;13.742;2023-10-19T03:22:49;98074.19;;;8.68;62.60
75699;BME280;64313;51.018;13.742;2023-10-19T03:25:15;98068.31;;;8.66;63.25
75699;BME280;64313;51.018;13.742;2023-10-19T03:28:00;98067.16;;;8.62;63.37
75699;BME280;64313;51.018;13.742;2023-10-19T03:30:35;98070.84;;;8.61;63.33
75699;BME280;64313;51.018;13.742;2023-10-19T03:33:06;98074.81;;;8.58;64.29
75699;BME280;64313;51.018;13.742;2023-10-19T03:35:36;98078.50;;;8.57;65.14
75699;BME280;64313;51.018;13.742;2023-10-19T03:38:03;98080.56;;;8.55;66.09
75699;BME280;64313;51.018;13.742;2023-10-19T03:40:34;98084.50;;;8.53;66.17
75699;BME280;64313;51.018;13.742;2023-10-19T03:43:03;98087.19;;;8.53;66.31
75699;BME280;64313;51.018;13.742;2023-10-19T03:45:39;98084.16;;;8.49;67.17
75699;BME280;64313;51.018;13.742;2023-10-19T03:48:09;98083.59;;;8.47;67.54
75699;BME280;64313;51.018;13.742;2023-10-19T03:50:35;98079.56;;;8.45;67.79
75699;BME280;64313;51.018;13.742;2023-10-19T03:53:02;98090.66;;;8.41;67.69
75699;BME280;64313;51.018;13.742;2023-10-19T03:55:29;98090.09;;;8.39;68.66
75699;BME280;64313;51.018;13.742;2023-10-19T03:57:55;98097.50;;;8.37;69.00
75699;BME280;64313;51.018;13.742;2023-10-19T04:00:20;98083.81;;;8.34;69.15
75699;BME280;64313;51.018;13.742;2023-10-19T04:02:51;98096.53;;;8.32;69.72
75699;BME280;64313;51.018;13.742;2023-10-19T04:05:20;98098.84;;;8.28;71.02
75699;BME280;64313;51.018;13.742;2023-10-19T04:07:48;98089.25;;;8.27;71.18
75699;BME280;64313;51.018;13.742;2023-10-19T04:10:20;98086.03;;;8.25;71.71
75699;BME280;64313;51.018;13.742;2023-10-19T04:13:01;98081.19;;;8.22;72.19
75699;BME280;64313;51.018;13.742;2023-10-19T04:15:27;98075.28;;;8.20;72.28
75699;BME280;64313;51.018;13.742;2023-10-19T04:17:54;98075.53;;;8.19;72.80
75699;BME280;64313;51.018;13.742;2023-10-19T04:20:22;98061.91;;;8.15;72.95
75699;BME280;64313;51.018;13.742;2023-10-19T04:22:49;98059.25;;;8.15;74.19
75699;BME280;64313;51.018;13.742;2023-10-19T04:25:15;98052.78;;;8.11;73.70
75699;BME280;64313;51.018;13.742;2023-10-19T04:27:42;98051.41;;;8.08;73.83
75699;BME280;64313;51.018;13.742;2023-10-19T04:30:13;98050.03;;;8.06;74.84
75699;BME280;64313;51.018;13.742;2023-10-19T04:32:45;98032.94;;;8.02;74.53
75699;BME280;64313;51.018;13.742;2023-10-19T04:35:12;98045.84;;;7.98;75.41
75699;BME280;64313;51.018;13.742;2023-10-19T04:37:40;98049.78;;;7.96;75.13
75699;BME280;64313;51.018;13.742;2023-10-19T04:40:11;98048.63;;;7.92;75.46
75699;BME280;64313;51.018;13.742;2023-10-19T04:42:37;98062.13;;;7.90;76.31
75699;BME280;64313;51.018;13.742;2023-10-19T04:45:04;98061.81;;;7.86;76.29
75699;BME280;64313;51.018;13.742;2023-10-19T04:47:30;98061.44;;;7.83;76.33
75699;BME280;64313;51.018;13.742;2023-10-19T04:49:56;98051.06;;;7.81;76.25
75699;BME280;64313;51.018;13.742;2023-10-19T04:52:21;98051.50;;;7.78;76.69
75699;BME280;64313;51.018;13.742;2023-10-19T04:54:47;98052.00;;;7.75;77.31
75699;BME280;64313;51.018;13.742;2023-10-19T04:57:12;98047.94;;;7.73;76.77
75699;BME280;64313;51.018;13.742;2023-10-19T04:59:37;98060.88;;;7.69;76.75
75699;BME280;64313;51.018;13.742;2023-10-19T05:02:03;98046.00;;;7.68;76.82
75699;BME280;64313;51.018;13.742;2023-10-19T05:04:29;98045.38;;;7.66;76.88
75699;BME280;64313;51.018;13.742;2023-10-19T05:06:55;98045.06;;;7.63;77.43
75699;BME280;64313;51.018;13.742;2023-10-19T05:09:20;98032.22;;;7.59;77.47
75699;BME280;64313;51.018;13.742;2023-10-19T05:11:46;98040.44;;;7.58;77.66
75699;BME280;64313;51.018;13.742;2023-10-19T05:14:12;98042.50;;;7.56;78.13
75699;BME280;64313;51.018;13.742;2023-10-19T05:16:39;98040.09;;;7.54;78.05
75699;BME280;64313;51.018;13.742;2023-10-19T05:19:05;98033.16;;;7.53;78.63
75699;BME280;64313;51.018;13.742;2023-10-19T05:21:30;98030.72;;;7.52;78.75
75699;BME280;64313;51.018;13.742;2023-10-19T05:23:55;98013.22;;;7.51;78.75
75699;BME280;64313;51.018;13.742;2023-10-19T05:26:21;98022.22;;;7.50;79.17
75699;BME280;64313;51.018;13.742;2023-10-19T05:28:46;98020.59;;;7.49;78.43
75699;BME280;64313;51.018;13.742;2023-10-19T05:31:13;98017.13;;;7.48;78.80
75699;BME280;64313;51.018;13.742;2023-10-19T05:33:38;98006.75;;;7.47;78.68
75699;BME280;64313;51.018;13.742;2023-10-19T05:36:04;98012.03;;;7.47;79.56
75699;BME280;64313;51.018;13.742;2023-10-19T05:38:30;98012.28;;;7.45;78.49
75699;BME280;64313;51.018;13.742;2023-10-19T05:40:57;98016.78;;;7.45;79.37
75699;BME280;64313;51.018;13.742;2023-10-19T05:43:24;98020.47;;;7.44;78.97
75699;BME280;64313;51.018;13.742;2023-10-19T05:45:50;98017.00;;;7.43;78.31
75699;BME280;64313;51.018;13.742;2023-10-19T05:48:16;98022.31;;;7.43;79.11
75699;BME280;64313;51.018;13.742;2023-10-19T05:50:41;98015.97;;;7.44;78.94
75699;BME280;64313;51.018;13.742;2023-10-19T05:53:08;98011.94;;;7.42;79.06
75699;BME280;64313;51.018;13.742;2023-10-19T05:55:33;98012.75;;;7.42;79.22
75699;BME280;64313;51.018;13.742;2023-10-19T05:58:02;98005.84;;;7.41;79.87
75699;BME280;64313;51.018;13.742;2023-10-19T06:00:31;98008.50;;;7.41;79.19
75699;BME280;64313;51.018;13.742;2023-10-19T06:02:56;98013.00;;;7.41;79.11
75699;BME280;64313;51.018;13.742;2023-10-19T06:05:23;98009.50;;;7.40;79.42
75699;BME280;64313;51.018;13.742;2023-10-19T06:07:49;98007.88;;;7.39;80.12
75699;BME280;64313;51.018;13.742;2023-10-19T06:10:20;97998.09;;;7.40;79.29
75699;BME280;64313;51.018;13.742;2023-10-19T06:12:47;98000.75;;;7.40;79.26
75699;BME280;64313;51.018;13.742;2023-10-19T06:15:14;98008.94;;;7.38;79.03
75699;BME280;64313;51.018;13.742;2023-10-19T06:17:41;98023.00;;;7.39;79.18
75699;BME280;64313;51.018;13.742;2023-10-19T06:20:10;98018.72;;;7.38;79.75
75699;BME280;64313;51.018;13.742;2023-10-19T06:22:53;98020.56;;;7.37;80.14
75699;BME280;64313;51.018;13.742;2023-10-19T06:25:19;98026.91;;;7.36;79.61
75699;BME280;64313;51.018;13.742;2023-10-19T06:27:47;98030.38;;;7.37;79.97
75699;BME280;64313;51.018;13.742;2023-10-19T06:30:16;98031.41;;;7.36;79.76
75699;BME280;64313;51.018;13.742;2023-10-19T06:32:49;98031.41;;;7.36;79.42
75699;BME280;64313;51.018;13.742;2023-10-19T06:35:16;98021.84;;;7.35;80.23
75699;BME280;64313;51.018;13.742;2023-10-19T06:37:42;98030.38;;;7.37;79.96
75699;BME280;64313;51.018;13.742;2023-10-19T06:40:09;98030.38;;;7.37;79.92
75699;BME280;64313;51.018;13.742;2023-10-19T06:42:37;98031.19;;;7.37;79.63
75699;BME280;64313;51.018;13.742;2023-10-19T06:45:02;98031.19;;;7.37;80.30
75699;BME280;64313;51.018;13.742;2023-10-19T06:47:28;98024.03;;;7.38;79.86
75699;BME280;64313;51.018;13.742;2023-10-19T06:49:54;98030.94;;;7.39;80.50
75699;BME280;64313;51.018;13.742;2023-10-19T06:52:21;98020.34;;;7.39;80.48
75699;BME280;64313;51.018;13.742;2023-10-19T06:54:46;98028.28;;;7.39;80.06
75699;BME280;64313;51.018;13.742;2023-10-19T06:57:11;98026.44;;;7.39;80.11
75699;BME280;64313;51.018;13.742;2023-10-19T06:59:37;98017.69;;;7.39;80.94
75699;BME280;64313;51.018;13.742;2023-10-19T07:02:02;98015.84;;;7.39;80.74
75699;BME280;64313;51.018;13.742;2023-10-19T07:04:28;98015.84;;;7.39;80.69
75699;BME280;64313;51.018;13.742;2023-10-19T07:06:55;98012.16;;;7.40;80.74
75699;BME280;64313;51.018;13.742;2023-10-19T07:09:20;98017.47;;;7.40;81.14
75699;BME280;64313;51.018;13.742;2023-10-19T07:11:46;98007.69;;;7.41;80.27
75699;BME280;64313;51.018;13.742;2023-10-19T07:14:12;98003.38;;;7.40;80.99
75699;BME280;64313;51.018;13.742;2023-10-19T07:16:39;98007.69;;;7.41;80.98
75699;BME280;64313;51.018;13.742;2023-10-19T07:19:05;97996.25;;;7.40;80.30
75699;BME280;64313;51.018;13.742;2023-10-19T07:21:30;98000.75;;;7.40;80.26
75699;BME280;64313;51.018;13.742;2023-10-19T07:24:01;97999.13;;;7.39;80.88
75699;BME280;64313;51.018;13.742;2023-10-19T07:26:31;97991.16;;;7.39;80.61
75699;BME280;64313;51.018;13.742;2023-10-19T07:28:59;97997.28;;;7.39;80.81
75699;BME280;64313;51.018;13.742;2023-10-19T07:31:25;98007.09;;;7.39;81.23
75699;BME280;64313;51.018;13.742;2023-10-19T07:33:53;98011.34;;;7.40;81.11
75699;BME280;64313;51.018;13.742;2023-10-19T07:36:21;98007.88;;;7.39;80.48
75699;BME280;64313;51.018;13.742;2023-10-19T07:38:46;98004.19;;;7.40;80.94
75699;BME280;64313;51.018;13.742;2023-10-19T07:41:13;98006.03;;;7.40;81.13
75699;BME280;64313;51.018;13.742;2023-10-19T07:43:39;98000.75;;;7.40;81.50
75699;BME280;64313;51.018;13.742;2023-10-19T07:46:04;97999.94;;;7.39;81.41
75699;BME280;64313;51.018;13.742;2023-10-19T07:48:30;98007.88;;;7.39;81.23
75699;BME280;64313;51.018;13.742;2023-10-19T07:50:55;98013.00;;;7.41;81.10
75699;BME280;64313;51.018;13.742;2023-10-19T07:53:21;98011.34;;;7.40;80.58
75699;BME280;64313;51.018;13.742;2023-10-19T07:55:46;98018.28;;;7.41;80.82
75699;BME280;64313;51.018;13.742;2023-10-19T07:58:12;98018.28;;;7.41;80.27
75699;BME280;64313;51.018;13.742;2023-10-19T08:00:37;98017.25;;;7.42;81.01
75699;BME280;64313;51.018;13.742;2023-10-19T08:03:04;98009.28;;;7.42;81.73
75699;BME280;64313;51.018;13.742;2023-10-19T08:05:31;98011.72;;;7.43;80.78
75699;BME280;64313;51.018;13.742;2023-10-19T08:07:57;98017.81;;;7.44;80.69
75699;BME280;64313;51.018;13.742;2023-10-19T08:10:24;98011.47;;;7.45;80.71
75699;BME280;64313;51.018;13.742;2023-10-19T08:12:50;98011.47;;;7.45;80.83
75699;BME280;64313;51.018;13.742;2023-10-19T08:15:18;97999.03;;;7.45;81.50
75699;BME280;64313;51.018;13.742;2023-10-19T08:17:46;98000.63;;;7.46;80.87
75699;BME280;64313;51.018;13.742;2023-10-19T08:20:15;97986.34;;;7.47;81.76
75699;BME280;64313;51.018;13.742;2023-10-19T08:22:53;97986.34;;;7.47;81.10
75699;BME280;64313;51.018;13.742;2023-10-19T08:25:22;97985.31;;;7.48;81.20
75699;BME280;64313;51.018;13.742;2023-10-19T08:27:47;97981.63;;;7.49;81.23
75699;BME280;64313;51.018;13.742;2023-10-19T08:30:21;97977.13;;;7.50;81.21
75699;BME280;64313;51.018;13.742;2023-10-19T08:32:46;97967.31;;;7.50;81.21
75699;BME280;64313;51.018;13.742;2023-10-19T08:35:14;97965.72;;;7.49;80.75
75699;BME280;64313;51.018;13.742;2023-10-19T08:37:40;97968.13;;;7.51;80.85
75699;BME280;64313;51.018;13.742;2023-10-19T08:40:10;97960.97;;;7.51;81.28
75699;BME280;64313;51.018;13.742;2023-10-19T08:42:44;97951.97;;;7.52;80.82
75699;BME280;64313;51.018;13.742;2023-10-19T08:45:10;97951.97;;;7.52;80.65
75699;BME280;64313;51.018;13.742;2023-10-19T08:47:56;97943.81;;;7.54;81.30
75699;BME280;64313;51.018;13.742;2023-10-19T08:50:25;97947.25;;;7.54;81.62
75699;BME280;64313;51.018;13.742;2023-10-19T08:52:53;97941.97;;;7.54;81.30
75699;BME280;64313;51.018;13.742;2023-10-19T08:55:19;97951.53;;;7.55;81.90
75699;BME280;64313;51.018;13.742;2023-10-19T08:57:47;97948.88;;;7.55;81.95
75699;BME280;64313;51.018;13.742;2023-10-19T09:00:14;97953.94;;;7.57;81.39
75699;BME280;64313;51.018;13.742;2023-10-19T09:02:43;97946.78;;;7.57;81.44
75699;BME280;64313;51.018;13.742;2023-10-19T09:05:08;97945.75;;;7.58;82.05
75699;BME280;64313;51.018;13.742;2023-10-19T09:07:34;97936.75;;;7.59;82.03
75699;BME280;64313;51.018;13.742;2023-10-19T09:10:00;97934.91;;;7.60;82.26
75699;BME280;64313;51.018;13.742;2023-10-19T09:12:26;97930.97;;;7.63;82.41
75699;BME280;64313;51.018;13.742;2023-10-19T09:14:52;97929.94;;;7.64;82.25
75699;BME280;64313;51.018;13.742;2023-10-19T09:17:28;97925.78;;;7.68;82.38
75699;BME280;64313;51.018;13.742;2023-10-19T09:19:54;97923.13;;;7.68;82.19
75699;BME280;64313;51.018;13.742;2023-10-19T09:22:21;97935.69;;;7.72;82.55
75699;BME280;64313;51.018;13.742;2023-10-19T09:24:50;97927.28;;;7.75;82.61
75699;BME280;64313;51.018;13.742;2023-10-19T09:27:19;97924.16;;;7.78;83.52
75699;BME280;64313;51.018;13.742;2023-10-19T09:29:45;97921.03;;;7.81;83.58
75699;BME280;64313;51.018;13.742;2023-10-19T09:32:10;97915.03;;;7.86;83.36
75699;BME280;64313;51.018;13.742;2023-10-19T09:34:39;97910.84;;;7.90;83.95
75699;BME280;64313;51.018;13.742;2023-10-19T09:37:06;97915.47;;;7.95;83.46
75699;BME280;64313;51.018;13.742;2023-10-19T09:39:32;97913.38;;;7.97;83.58
75699;BME280;64313;51.018;13.742;2023-10-19T09:42:06;97917.19;;;8.01;83.76
75699;BME280;64313;51.018;13.742;2023-10-19T09:47:12;97913.59;;;8.07;84.05
75699;BME280;64313;51.018;13.742;2023-10-19T09:49:41;97916.56;;;8.10;83.38
75699;BME280;64313;51.018;13.742;2023-10-19T09:52:09;97917.97;;;8.13;84.27
75699;BME280;64313;51.018;13.742;2023-10-19T09:54:48;97913.22;;;8.15;83.22
75699;BME280;64313;51.018;13.742;2023-10-19T09:57:19;97905.81;;;8.17;83.50
75699;BME280;64313;51.018;13.742;2023-10-19T09:59:51;97916.22;;;8.19;83.50
75699;BME280;64313;51.018;13.742;2023-10-19T10:02:20;97912.50;;;8.20;83.50
75699;BME280;64313;51.018;13.742;2023-10-19T10:04:47;97915.72;;;8.22;83.01
75699;BME280;64313;51.018;13.742;2023-10-19T10:07:14;97911.22;;;8.22;83.16
75699;BME280;64313;51.018;13.742;2023-10-19T10:09:42;97903.00;;;8.24;82.98
75699;BME280;64313;51.018;13.742;2023-10-19T10:12:24;97894.03;;;8.25;82.79
75699;BME280;64313;51.018;13.742;2023-10-19T10:15:08;97892.97;;;8.26;82.76
75699;BME280;64313;51.018;13.742;2023-10-19T10:17:36;97894.59;;;8.27;82.96
75699;BME280;64313;51.018;13.742;2023-10-19T10:22:43;97882.91;;;8.28;82.88
75699;BME280;64313;51.018;13.742;2023-10-19T10:25:25;97878.16;;;8.30;82.79
75699;BME280;64313;51.018;13.742;2023-10-19T10:27:51;97868.13;;;8.32;83.46
75699;BME280;64313;51.018;13.742;2023-10-19T10:30:16;97864.44;;;8.33;82.27
75699;BME280;64313;51.018;13.742;2023-10-19T10:32:51;97860.72;;;8.34;83.25
75699;BME280;64313;51.018;13.742;2023-10-19T10:38:03;97858.44;;;8.37;83.16
75699;BME280;64313;51.018;13.742;2023-10-19T10:40:31;97851.03;;;8.39;83.68
75699;BME280;64313;51.018;13.742;2023-10-19T10:43:06;97839.91;;;8.43;83.36
75699;BME280;64313;51.018;13.742;2023-10-19T10:45:32;97831.94;;;8.43;83.25
75699;BME280;64313;51.018;13.742;2023-10-19T10:47:57;97846.63;;;8.45;82.98
75699;BME280;64313;51.018;13.742;2023-10-19T10:50:26;97839.22;;;8.47;83.83
75699;BME280;64313;51.018;13.742;2023-10-19T10:52:54;97841.63;;;8.49;82.83
75699;BME280;64313;51.018;13.742;2023-10-19T10:55:23;97845.88;;;8.50;82.52
75699;BME280;64313;51.018;13.742;2023-10-19T10:57:50;97832.38;;;8.51;83.11
75699;BME280;64313;51.018;13.742;2023-10-19T11:00:16;97826.81;;;8.53;82.87
75699;BME280;64313;51.018;13.742;2023-10-19T11:02:45;97822.88;;;8.55;83.22
75699;BME280;64313;51.018;13.742;2023-10-19T11:05:16;97824.25;;;8.58;83.59
75699;BME280;64313;51.018;13.742;2023-10-19T11:10:30;97827.56;;;8.65;82.85
75699;BME280;64313;51.018;13.742;2023-10-19T11:13:07;97824.41;;;8.68;83.50
75699;BME280;64313;51.018;13.742;2023-10-19T11:15:34;97823.94;;;8.71;83.60
75699;BME280;64313;51.018;13.742;2023-10-19T11:18:00;97816.75;;;8.72;82.41
75699;BME280;64313;51.018;13.742;2023-10-19T11:20:26;97816.50;;;8.73;82.77
75699;BME280;64313;51.018;13.742;2023-10-19T11:22:54;97823.19;;;8.76;83.21
75699;BME280;64313;51.018;13.742;2023-10-19T11:25:25;97816.59;;;8.78;82.86
75699;BME280;64313;51.018;13.742;2023-10-19T11:27:55;97805.72;;;8.80;82.84
75699;BME280;64313;51.018;13.742;2023-10-19T11:30:28;97810.56;;;8.83;82.48
75699;BME280;64313;51.018;13.742;2023-10-19T11:32:55;97803.94;;;8.85;82.47
75699;BME280;64313;51.018;13.742;2023-10-19T11:35:27;97811.66;;;8.87;82.48
75699;BME280;64313;51.018;13.742;2023-10-19T11:37:56;97806.94;;;8.89;82.35
75699;BME280;64313;51.018;13.742;2023-10-19T11:40:23;97807.50;;;8.91;83.02
75699;BME280;64313;51.018;13.742;2023-10-19T11:42:49;97813.34;;;8.93;82.31
75699;BME280;64313;51.018;13.742;2023-10-19T11:45:16;97814.75;;;8.95;81.65
75699;BME280;64313;51.018;13.742;2023-10-19T11:47:45;97817.16;;;8.97;81.74
75699;BME280;64313;51.018;13.742;2023-10-19T11:50:12;97808.13;;;8.98;81.69
75699;BME280;64313;51.018;13.742;2023-10-19T11:52:40;97797.22;;;9.00;81.64
75699;BME280;64313;51.018;13.742;2023-10-19T11:55:05;97799.66;;;9.01;81.12
75699;BME280;64313;51.018;13.742;2023-10-19T11:57:31;97803.13;;;9.02;81.68
75699;BME280;64313;51.018;13.742;2023-10-19T11:59:57;97802.06;;;9.03;80.44
75699;BME280;64313;51.018;13.742;2023-10-19T12:02:24;97799.41;;;9.03;81.06
75699;BME280;64313;51.018;13.742;2023-10-19T12:04:50;97801.81;;;9.04;80.94
75699;BME280;64313;51.018;13.742;2023-10-19T12:07:15;97802.63;;;9.05;80.88
75699;BME280;64313;51.018;13.742;2023-10-19T12:09:41;97811.41;;;9.05;80.89
75699;BME280;64313;51.018;13.742;2023-10-19T12:12:07;97810.59;;;9.05;81.18
75699;BME280;64313;51.018;13.742;2023-10-19T12:14:34;97802.38;;;9.06;80.93
75699;BME280;64313;51.018;13.742;2023-10-19T12:17:00;97800.78;;;9.05;81.40
75699;BME280;64313;51.018;13.742;2023-10-19T12:19:29;97797.88;;;9.07;81.40
75699;BME280;64313;51.018;13.742;2023-10-19T12:21:55;97804.22;;;9.06;81.12
75699;BME280;64313;51.018;13.742;2023-10-19T12:24:21;97810.34;;;9.06;81.11
75699;BME280;64313;51.018;13.742;2023-10-19T12:26:47;97796.25;;;9.06;81.28
75699;BME280;64313;51.018;13.742;2023-10-19T12:29:12;97789.88;;;9.07;81.50
75699;BME280;64313;51.018;13.742;2023-10-19T12:31:40;97782.50;;;9.09;80.74
75699;BME280;64313;51.018;13.742;2023-10-19T12:34:06;97786.75;;;9.10;80.68
75699;BME280;64313;51.018;13.742;2023-10-19T12:36:34;97789.97;;;9.12;81.23
75699;BME280;64313;51.018;13.742;2023-10-19T12:39:00;97787.06;;;9.13;80.65
75699;BME280;64313;51.018;13.742;2023-10-19T12:41:27;97781.72;;;9.13;80.63
75699;BME280;64313;51.018;13.742;2023-10-19T12:43:53;97778.84;;;9.15;80.61
75699;BME280;64313;51.018;13.742;2023-10-19T12:46:33;97786.00;;;9.14;80.70
75699;BME280;64313;51.018;13.742;2023-10-19T12:49:04;97786.84;;;9.15;81.00
75699;BME280;64313;51.018;13.742;2023-10-19T12:51:29;97786.84;;;9.15;80.57
75699;BME280;64313;51.018;13.742;2023-10-19T12:53:55;97782.53;;;9.14;80.61
75699;BME280;64313;51.018;13.742;2023-10-19T12:56:21;97776.19;;;9.15;80.96
75699;BME280;64313;51.018;13.742;2023-10-19T12:58:49;97766.34;;;9.15;80.94
75699;BME280;64313;51.018;13.742;2023-10-19T13:01:15;97774.88;;;9.17;81.45
75699;BME280;64313;51.018;13.742;2023-10-19T13:03:45;97765.03;;;9.18;81.47
75699;BME280;64313;51.018;13.742;2023-10-19T13:06:14;97761.34;;;9.19;81.86
75699;BME280;64313;51.018;13.742;2023-10-19T13:08:40;97762.94;;;9.20;81.86
75699;BME280;64313;51.018;13.742;2023-10-19T13:11:09;97757.13;;;9.23;81.52
75699;BME280;64313;51.018;13.742;2023-10-19T13:13:40;97757.69;;;9.25;81.90
75699;BME280;64313;51.018;13.742;2023-10-19T13:16:06;97753.50;;;9.29;81.58
75699;BME280;64313;51.018;13.742;2023-10-19T13:18:34;97751.94;;;9.33;81.35
75699;BME280;64313;51.018;13.742;2023-10-19T13:21:00;97746.13;;;9.36;81.87
75699;BME280;64313;51.018;13.742;2023-10-19T13:23:34;97742.97;;;9.39;81.22